sensor_id;sensor_type;location;lat;lon;timestamp;P1;durP1;ratioP1;P2;durP2;ratioP2
47784;SDS011;35233;55.686;37.848;2023-01-15T00:01:01;6.30;;;4.30;;
47784;SDS011;35233;55.686;37.848;2023-01-15T00:03:28;6.20;;;4.22;;
47784;SDS011;35233;55.686;37.848;2023-01-15T00:05:54;5.22;;;3.85;;
47784;SDS011;35233;55.686;37.848;2023-01-15T00:08:19;8.45;;;4.53;;
47784;SDS011;35233;55.686;37.848;2023-01-15T00:10:45;6.88;;;4.60;;
47784;SDS011;35233;55.686;37.848;2023-01-15T00:13:11;6.65;;;3.88;;
47784;SDS011;35233;55.686;37.848;2023-01-15T00:15:36;6.82;;;3.85;;
47784;SDS011;35233;55.686;37.848;2023-01-15T00:18:02;6.65;;;4.45;;
47784;SDS011;35233;55.686;37.848;2023-01-15T00:20:28;7.78;;;4.40;;
47784;SDS011;35233;55.686;37.848;2023-01-15T00:22:54;5.97;;;3.83;;
47784;SDS011;35233;55.686;37.848;2023-01-15T00:25:19;6.25;;;3.92;;
47784;SDS011;35233;55.686;37.848;2023-01-15T00:28:04;6.83;;;4.23;;
47784;SDS011;35233;55.686;37.848;2023-01-15T00:30:29;5.72;;;3.80;;
47784;SDS011;35233;55.686;37.848;2023-01-15T00:32:55;7.10;;;3.97;;
47784;SDS011;35233;55.686;37.848;2023-01-15T00:35:22;7.22;;;4.15;;
47784;SDS011;35233;55.686;37.848;2023-01-15T00:37:48;6.32;;;4.20;;
47784;SDS011;35233;55.686;37.848;2023-01-15T00:40:14;4.97;;;3.72;;
47784;SDS011;35233;55.686;37.848;2023-01-15T00:42:41;7.10;;;4.32;;
47784;SDS011;35233;55.686;37.848;2023-01-15T00:45:07;6.32;;;3.90;;
47784;SDS011;35233;55.686;37.848;2023-01-15T00:47:43;8.27;;;4.05;;
47784;SDS011;35233;55.686;37.848;2023-01-15T00:50:13;7.70;;;4.00;;
47784;SDS011;35233;55.686;37.848;2023-01-15T00:52:39;5.40;;;4.00;;
47784;SDS011;35233;55.686;37.848;2023-01-15T00:55:06;7.43;;;4.30;;
47784;SDS011;35233;55.686;37.848;2023-01-15T00:57:32;5.43;;;3.70;;
47784;SDS011;35233;55.686;37.848;2023-01-15T00:59:58;6.57;;;4.32;;
47784;SDS011;35233;55.686;37.848;2023-01-15T01:02:23;6.85;;;4.13;;
47784;SDS011;35233;55.686;37.848;2023-01-15T01:04:49;7.95;;;4.22;;
47784;SDS011;35233;55.686;37.848;2023-01-15T01:07:15;6.95;;;3.90;;
47784;SDS011;35233;55.686;37.848;2023-01-15T01:09:42;6.47;;;3.75;;
47784;SDS011;35233;55.686;37.848;2023-01-15T01:12:08;6.45;;;4.00;;
47784;SDS011;35233;55.686;37.848;2023-01-15T01:14:33;8.02;;;3.85;;
47784;SDS011;35233;55.686;37.848;2023-01-15T01:17:01;6.78;;;4.20;;
47784;SDS011;35233;55.686;37.848;2023-01-15T01:19:26;5.28;;;3.70;;
47784;SDS011;35233;55.686;37.848;2023-01-15T01:21:52;6.93;;;3.83;;
47784;SDS011;35233;55.686;37.848;2023-01-15T01:24:18;6.30;;;3.80;;
47784;SDS011;35233;55.686;37.848;2023-01-15T01:26:46;7.10;;;3.95;;
47784;SDS011;35233;55.686;37.848;2023-01-15T01:29:12;5.90;;;4.00;;
47784;SDS011;35233;55.686;37.848;2023-01-15T01:31:39;7.22;;;4.20;;
47784;SDS011;35233;55.686;37.848;2023-01-15T01:34:05;5.72;;;3.65;;
47784;SDS011;35233;55.686;37.848;2023-01-15T01:36:32;6.28;;;3.83;;
47784;SDS011;35233;55.686;37.848;2023-01-15T01:38:59;7.07;;;3.67;;
47784;SDS011;35233;55.686;37.848;2023-01-15T01:41:26;5.80;;;4.05;;
47784;SDS011;35233;55.686;37.848;2023-01-15T01:46:24;6.32;;;3.92;;
47784;SDS011;35233;55.686;37.848;2023-01-15T01:48:52;7.50;;;3.70;;
47784;SDS011;35233;55.686;37.848;2023-01-15T01:51:20;8.35;;;4.20;;
47784;SDS011;35233;55.686;37.848;2023-01-15T01:53:49;6.72;;;3.83;;
47784;SDS011;35233;55.686;37.848;2023-01-15T01:56:15;6.65;;;3.83;;
47784;SDS011;35233;55.686;37.848;2023-01-15T01:58:43;7.25;;;4.20;;
47784;SDS011;35233;55.686;37.848;2023-01-15T02:01:12;6.55;;;4.18;;
47784;SDS011;35233;55.686;37.848;2023-01-15T02:03:37;8.65;;;4.13;;
47784;SDS011;35233;55.686;37.848;2023-01-15T02:06:05;5.78;;;3.90;;
47784;SDS011;35233;55.686;37.848;2023-01-15T02:08:33;7.38;;;3.67;;
47784;SDS011;35233;55.686;37.848;2023-01-15T02:10:59;7.30;;;3.78;;
47784;SDS011;35233;55.686;37.848;2023-01-15T02:13:38;7.93;;;4.05;;
47784;SDS011;35233;55.686;37.848;2023-01-15T02:16:22;5.15;;;3.53;;
47784;SDS011;35233;55.686;37.848;2023-01-15T02:24:08;7.60;;;4.40;;
47784;SDS011;35233;55.686;37.848;2023-01-15T02:32:18;6.07;;;3.63;;
47784;SDS011;35233;55.686;37.848;2023-01-15T02:34:52;8.27;;;4.25;;
47784;SDS011;35233;55.686;37.848;2023-01-15T02:37:27;7.85;;;4.00;;
47784;SDS011;35233;55.686;37.848;2023-01-15T02:39:55;5.60;;;3.90;;
47784;SDS011;35233;55.686;37.848;2023-01-15T02:42:24;5.65;;;3.60;;
47784;SDS011;35233;55.686;37.848;2023-01-15T02:44:52;7.57;;;4.38;;
47784;SDS011;35233;55.686;37.848;2023-01-15T02:47:21;8.52;;;4.18;;
47784;SDS011;35233;55.686;37.848;2023-01-15T02:49:52;6.88;;;4.15;;
47784;SDS011;35233;55.686;37.848;2023-01-15T02:52:23;5.53;;;3.60;;
47784;SDS011;35233;55.686;37.848;2023-01-15T02:54:56;7.68;;;3.70;;
47784;SDS011;35233;55.686;37.848;2023-01-15T02:57:29;7.72;;;3.72;;
47784;SDS011;35233;55.686;37.848;2023-01-15T03:00:00;5.45;;;3.72;;
47784;SDS011;35233;55.686;37.848;2023-01-15T03:02:31;7.68;;;3.78;;
47784;SDS011;35233;55.686;37.848;2023-01-15T03:07:40;7.75;;;4.15;;
47784;SDS011;35233;55.686;37.848;2023-01-15T03:10:11;8.00;;;4.22;;
47784;SDS011;35233;55.686;37.848;2023-01-15T03:12:49;6.13;;;3.90;;
47784;SDS011;35233;55.686;37.848;2023-01-15T03:18:14;6.20;;;4.15;;
47784;SDS011;35233;55.686;37.848;2023-01-15T03:20:45;6.95;;;4.00;;
47784;SDS011;35233;55.686;37.848;2023-01-15T03:23:15;10.02;;;4.22;;
47784;SDS011;35233;55.686;37.848;2023-01-15T03:25:44;9.18;;;4.38;;
47784;SDS011;35233;55.686;37.848;2023-01-15T03:28:13;6.47;;;3.65;;
47784;SDS011;35233;55.686;37.848;2023-01-15T03:30:40;7.03;;;3.55;;
47784;SDS011;35233;55.686;37.848;2023-01-15T03:33:06;11.45;;;4.15;;
47784;SDS011;35233;55.686;37.848;2023-01-15T03:38:18;8.95;;;4.20;;
47784;SDS011;35233;55.686;37.848;2023-01-15T03:40:52;6.00;;;3.80;;
47784;SDS011;35233;55.686;37.848;2023-01-15T03:43:40;7.60;;;4.00;;
47784;SDS011;35233;55.686;37.848;2023-01-15T03:52:02;8.05;;;4.20;;
47784;SDS011;35233;55.686;37.848;2023-01-15T03:54:43;7.25;;;3.75;;
47784;SDS011;35233;55.686;37.848;2023-01-15T03:57:43;8.85;;;3.90;;
47784;SDS011;35233;55.686;37.848;2023-01-15T04:02:50;8.18;;;4.18;;
47784;SDS011;35233;55.686;37.848;2023-01-15T04:05:19;10.65;;;4.38;;
47784;SDS011;35233;55.686;37.848;2023-01-15T04:07:46;6.13;;;3.90;;
47784;SDS011;35233;55.686;37.848;2023-01-15T04:10:13;7.53;;;3.95;;
47784;SDS011;35233;55.686;37.848;2023-01-15T04:12:38;6.70;;;4.00;;
47784;SDS011;35233;55.686;37.848;2023-01-15T04:15:04;8.68;;;4.40;;
47784;SDS011;35233;55.686;37.848;2023-01-15T04:17:30;8.32;;;4.40;;
47784;SDS011;35233;55.686;37.848;2023-01-15T04:19:55;10.10;;;4.18;;
47784;SDS011;35233;55.686;37.848;2023-01-15T04:22:21;9.32;;;4.45;;
47784;SDS011;35233;55.686;37.848;2023-01-15T04:24:46;7.47;;;4.15;;
47784;SDS011;35233;55.686;37.848;2023-01-15T04:27:12;9.40;;;3.92;;
47784;SDS011;35233;55.686;37.848;2023-01-15T04:29:37;7.20;;;4.20;;
47784;SDS011;35233;55.686;37.848;2023-01-15T04:32:03;6.63;;;4.22;;
47784;SDS011;35233;55.686;37.848;2023-01-15T04:34:29;8.45;;;4.43;;
47784;SDS011;35233;55.686;37.848;2023-01-15T04:36:54;9.43;;;4.30;;
47784;SDS011;35233;55.686;37.848;2023-01-15T04:39:21;7.80;;;4.30;;
47784;SDS011;35233;55.686;37.848;2023-01-15T04:41:46;10.18;;;4.25;;
47784;SDS011;35233;55.686;37.848;2023-01-15T04:44:32;10.00;;;4.50;;
47784;SDS011;35233;55.686;37.848;2023-01-15T04:46:58;7.00;;;3.78;;
47784;SDS011;35233;55.686;37.848;2023-01-15T04:49:24;12.82;;;4.90;;
47784;SDS011;35233;55.686;37.848;2023-01-15T04:51:50;7.53;;;4.10;;
47784;SDS011;35233;55.686;37.848;2023-01-15T04:54:16;7.45;;;4.40;;
47784;SDS011;35233;55.686;37.848;2023-01-15T04:56:43;8.63;;;4.30;;
47784;SDS011;35233;55.686;37.848;2023-01-15T04:59:11;9.30;;;4.35;;
47784;SDS011;35233;55.686;37.848;2023-01-15T05:01:37;6.75;;;3.90;;
47784;SDS011;35233;55.686;37.848;2023-01-15T05:04:03;9.38;;;4.95;;
47784;SDS011;35233;55.686;37.848;2023-01-15T05:06:29;7.55;;;4.03;;
47784;SDS011;35233;55.686;37.848;2023-01-15T05:08:58;8.40;;;4.75;;
47784;SDS011;35233;55.686;37.848;2023-01-15T05:11:24;8.50;;;4.32;;
47784;SDS011;35233;55.686;37.848;2023-01-15T05:13:50;7.93;;;4.50;;
47784;SDS011;35233;55.686;37.848;2023-01-15T05:16:20;8.40;;;4.40;;
47784;SDS011;35233;55.686;37.848;2023-01-15T05:18:50;8.82;;;4.35;;
47784;SDS011;35233;55.686;37.848;2023-01-15T05:21:18;9.38;;;4.00;;
47784;SDS011;35233;55.686;37.848;2023-01-15T05:23:45;9.63;;;4.65;;
47784;SDS011;35233;55.686;37.848;2023-01-15T05:26:11;10.20;;;4.70;;
47784;SDS011;35233;55.686;37.848;2023-01-15T05:28:38;9.30;;;4.50;;
47784;SDS011;35233;55.686;37.848;2023-01-15T05:31:07;7.60;;;4.32;;
47784;SDS011;35233;55.686;37.848;2023-01-15T05:33:36;8.02;;;4.10;;
47784;SDS011;35233;55.686;37.848;2023-01-15T05:36:06;8.25;;;4.55;;
47784;SDS011;35233;55.686;37.848;2023-01-15T05:38:33;11.93;;;4.88;;
47784;SDS011;35233;55.686;37.848;2023-01-15T05:41:01;10.85;;;4.45;;
47784;SDS011;35233;55.686;37.848;2023-01-15T05:43:48;8.43;;;5.05;;
47784;SDS011;35233;55.686;37.848;2023-01-15T05:46:13;11.18;;;4.68;;
47784;SDS011;35233;55.686;37.848;2023-01-15T05:48:39;7.00;;;4.30;;
47784;SDS011;35233;55.686;37.848;2023-01-15T05:51:04;9.10;;;4.20;;
47784;SDS011;35233;55.686;37.848;2023-01-15T05:53:30;7.13;;;4.53;;
47784;SDS011;35233;55.686;37.848;2023-01-15T05:56:01;9.32;;;4.30;;
47784;SDS011;35233;55.686;37.848;2023-01-15T05:58:27;9.23;;;4.53;;
47784;SDS011;35233;55.686;37.848;2023-01-15T06:00:53;9.45;;;4.90;;
47784;SDS011;35233;55.686;37.848;2023-01-15T06:03:22;11.68;;;4.78;;
47784;SDS011;35233;55.686;37.848;2023-01-15T06:05:49;10.38;;;4.65;;
47784;SDS011;35233;55.686;37.848;2023-01-15T06:08:15;8.48;;;4.70;;
47784;SDS011;35233;55.686;37.848;2023-01-15T06:10:43;7.20;;;4.70;;
47784;SDS011;35233;55.686;37.848;2023-01-15T06:13:09;10.43;;;4.82;;
47784;SDS011;35233;55.686;37.848;2023-01-15T06:15:35;9.90;;;4.72;;
47784;SDS011;35233;55.686;37.848;2023-01-15T06:18:01;9.88;;;4.43;;
47784;SDS011;35233;55.686;37.848;2023-01-15T06:20:26;8.30;;;4.10;;
47784;SDS011;35233;55.686;37.848;2023-01-15T06:22:52;7.78;;;4.82;;
47784;SDS011;35233;55.686;37.848;2023-01-15T06:25:17;9.90;;;4.90;;
47784;SDS011;35233;55.686;37.848;2023-01-15T06:27:42;12.55;;;4.95;;
47784;SDS011;35233;55.686;37.848;2023-01-15T06:30:09;10.77;;;5.70;;
47784;SDS011;35233;55.686;37.848;2023-01-15T06:32:36;10.13;;;5.13;;
47784;SDS011;35233;55.686;37.848;2023-01-15T06:35:04;8.70;;;4.63;;
47784;SDS011;35233;55.686;37.848;2023-01-15T06:37:30;13.15;;;5.30;;
47784;SDS011;35233;55.686;37.848;2023-01-15T06:39:56;10.82;;;5.40;;
47784;SDS011;35233;55.686;37.848;2023-01-15T06:42:21;8.13;;;4.55;;
47784;SDS011;35233;55.686;37.848;2023-01-15T06:45:07;11.88;;;5.18;;
47784;SDS011;35233;55.686;37.848;2023-01-15T06:47:52;10.45;;;5.07;;
47784;SDS011;35233;55.686;37.848;2023-01-15T06:50:18;12.43;;;5.68;;
47784;SDS011;35233;55.686;37.848;2023-01-15T06:52:43;8.77;;;5.00;;
47784;SDS011;35233;55.686;37.848;2023-01-15T06:55:09;11.35;;;5.57;;
47784;SDS011;35233;55.686;37.848;2023-01-15T06:57:37;7.70;;;5.28;;
47784;SDS011;35233;55.686;37.848;2023-01-15T07:00:04;14.98;;;5.50;;
47784;SDS011;35233;55.686;37.848;2023-01-15T07:02:33;12.65;;;5.90;;
47784;SDS011;35233;55.686;37.848;2023-01-15T07:04:59;11.57;;;5.35;;
47784;SDS011;35233;55.686;37.848;2023-01-15T07:07:26;12.23;;;5.72;;
47784;SDS011;35233;55.686;37.848;2023-01-15T07:09:52;11.55;;;6.30;;
47784;SDS011;35233;55.686;37.848;2023-01-15T07:12:18;11.00;;;6.43;;
47784;SDS011;35233;55.686;37.848;2023-01-15T07:14:43;10.32;;;5.80;;
47784;SDS011;35233;55.686;37.848;2023-01-15T07:17:09;12.52;;;6.10;;
47784;SDS011;35233;55.686;37.848;2023-01-15T07:19:35;12.15;;;6.60;;
47784;SDS011;35233;55.686;37.848;2023-01-15T07:22:01;13.23;;;6.60;;
47784;SDS011;35233;55.686;37.848;2023-01-15T07:24:26;14.85;;;6.60;;
47784;SDS011;35233;55.686;37.848;2023-01-15T07:26:52;10.45;;;5.82;;
47784;SDS011;35233;55.686;37.848;2023-01-15T07:29:17;11.05;;;5.78;;
47784;SDS011;35233;55.686;37.848;2023-01-15T07:31:43;9.73;;;6.10;;
47784;SDS011;35233;55.686;37.848;2023-01-15T07:34:08;13.20;;;5.75;;
47784;SDS011;35233;55.686;37.848;2023-01-15T07:36:34;12.10;;;6.35;;
47784;SDS011;35233;55.686;37.848;2023-01-15T07:39:02;9.50;;;5.32;;
47784;SDS011;35233;55.686;37.848;2023-01-15T07:41:29;10.07;;;5.32;;
47784;SDS011;35233;55.686;37.848;2023-01-15T07:44:13;10.75;;;5.60;;
47784;SDS011;35233;55.686;37.848;2023-01-15T07:46:57;9.77;;;5.68;;
47784;SDS011;35233;55.686;37.848;2023-01-15T07:49:41;10.23;;;5.13;;
47784;SDS011;35233;55.686;37.848;2023-01-15T07:52:15;12.55;;;6.22;;
47784;SDS011;35233;55.686;37.848;2023-01-15T07:54:45;9.25;;;5.65;;
47784;SDS011;35233;55.686;37.848;2023-01-15T07:57:12;15.35;;;6.93;;
47784;SDS011;35233;55.686;37.848;2023-01-15T07:59:40;18.60;;;7.05;;
47784;SDS011;35233;55.686;37.848;2023-01-15T08:02:06;11.50;;;6.10;;
47784;SDS011;35233;55.686;37.848;2023-01-15T08:04:32;16.48;;;6.22;;
47784;SDS011;35233;55.686;37.848;2023-01-15T08:06:58;10.45;;;5.82;;
47784;SDS011;35233;55.686;37.848;2023-01-15T08:09:25;12.93;;;6.15;;
47784;SDS011;35233;55.686;37.848;2023-01-15T08:11:51;10.02;;;5.68;;
47784;SDS011;35233;55.686;37.848;2023-01-15T08:14:36;12.77;;;5.80;;
47784;SDS011;35233;55.686;37.848;2023-01-15T08:17:19;13.57;;;6.45;;
47784;SDS011;35233;55.686;37.848;2023-01-15T08:19:46;11.10;;;5.93;;
47784;SDS011;35233;55.686;37.848;2023-01-15T08:22:12;12.63;;;6.55;;
47784;SDS011;35233;55.686;37.848;2023-01-15T08:24:37;12.30;;;6.32;;
47784;SDS011;35233;55.686;37.848;2023-01-15T08:27:03;10.00;;;6.50;;
47784;SDS011;35233;55.686;37.848;2023-01-15T08:29:28;11.80;;;6.70;;
47784;SDS011;35233;55.686;37.848;2023-01-15T08:31:54;13.38;;;6.60;;
47784;SDS011;35233;55.686;37.848;2023-01-15T08:34:20;11.00;;;7.03;;
47784;SDS011;35233;55.686;37.848;2023-01-15T08:36:45;14.93;;;6.63;;
47784;SDS011;35233;55.686;37.848;2023-01-15T08:39:11;14.15;;;6.60;;
47784;SDS011;35233;55.686;37.848;2023-01-15T08:41:36;10.82;;;6.68;;
47784;SDS011;35233;55.686;37.848;2023-01-15T08:44:02;11.35;;;6.18;;
47784;SDS011;35233;55.686;37.848;2023-01-15T08:46:27;11.80;;;6.22;;
47784;SDS011;35233;55.686;37.848;2023-01-15T08:48:53;16.48;;;7.00;;
47784;SDS011;35233;55.686;37.848;2023-01-15T08:51:19;10.70;;;6.28;;
47784;SDS011;35233;55.686;37.848;2023-01-15T08:53:44;13.10;;;6.28;;
47784;SDS011;35233;55.686;37.848;2023-01-15T08:56:19;12.65;;;6.53;;
47784;SDS011;35233;55.686;37.848;2023-01-15T08:58:44;12.00;;;6.20;;
47784;SDS011;35233;55.686;37.848;2023-01-15T09:01:11;12.10;;;7.03;;
47784;SDS011;35233;55.686;37.848;2023-01-15T09:03:40;11.50;;;5.85;;
47784;SDS011;35233;55.686;37.848;2023-01-15T09:06:07;13.23;;;6.65;;
47784;SDS011;35233;55.686;37.848;2023-01-15T09:08:35;11.18;;;5.72;;
47784;SDS011;35233;55.686;37.848;2023-01-15T09:11:02;9.40;;;5.00;;
47784;SDS011;35233;55.686;37.848;2023-01-15T09:13:29;10.60;;;5.25;;
47784;SDS011;35233;55.686;37.848;2023-01-15T09:16:02;12.82;;;5.00;;
47784;SDS011;35233;55.686;37.848;2023-01-15T09:18:29;7.93;;;4.97;;
47784;SDS011;35233;55.686;37.848;2023-01-15T09:20:56;9.60;;;5.15;;
47784;SDS011;35233;55.686;37.848;2023-01-15T09:23:22;10.60;;;5.28;;
47784;SDS011;35233;55.686;37.848;2023-01-15T09:25:54;9.35;;;5.07;;
47784;SDS011;35233;55.686;37.848;2023-01-15T09:28:23;9.73;;;5.43;;
47784;SDS011;35233;55.686;37.848;2023-01-15T09:30:49;8.85;;;4.95;;
47784;SDS011;35233;55.686;37.848;2023-01-15T09:33:15;11.57;;;5.07;;
47784;SDS011;35233;55.686;37.848;2023-01-15T09:35:43;12.38;;;5.45;;
47784;SDS011;35233;55.686;37.848;2023-01-15T09:38:13;7.40;;;5.28;;
47784;SDS011;35233;55.686;37.848;2023-01-15T09:43:12;9.82;;;5.68;;
47784;SDS011;35233;55.686;37.848;2023-01-15T09:45:54;8.13;;;5.05;;
47784;SDS011;35233;55.686;37.848;2023-01-15T09:51:27;9.18;;;4.93;;
47784;SDS011;35233;55.686;37.848;2023-01-15T09:56:45;10.20;;;4.78;;
47784;SDS011;35233;55.686;37.848;2023-01-15T09:59:19;8.93;;;5.13;;
47784;SDS011;35233;55.686;37.848;2023-01-15T10:01:55;8.98;;;4.63;;
47784;SDS011;35233;55.686;37.848;2023-01-15T10:04:27;8.27;;;5.18;;
47784;SDS011;35233;55.686;37.848;2023-01-15T10:07:33;9.48;;;5.07;;
47784;SDS011;35233;55.686;37.848;2023-01-15T10:10:03;8.30;;;5.45;;
47784;SDS011;35233;55.686;37.848;2023-01-15T10:12:35;12.30;;;6.40;;
47784;SDS011;35233;55.686;37.848;2023-01-15T10:20:47;12.27;;;6.60;;
47784;SDS011;35233;55.686;37.848;2023-01-15T10:23:35;14.50;;;7.43;;
47784;SDS011;35233;55.686;37.848;2023-01-15T10:31:21;16.08;;;8.15;;
47784;SDS011;35233;55.686;37.848;2023-01-15T10:33:54;17.48;;;8.10;;
47784;SDS011;35233;55.686;37.848;2023-01-15T10:36:29;14.45;;;7.78;;
47784;SDS011;35233;55.686;37.848;2023-01-15T10:41:56;15.43;;;7.63;;
47784;SDS011;35233;55.686;37.848;2023-01-15T10:47:25;14.98;;;7.20;;
47784;SDS011;35233;55.686;37.848;2023-01-15T10:49:56;13.73;;;6.80;;
47784;SDS011;35233;55.686;37.848;2023-01-15T10:55:02;16.80;;;7.60;;
47784;SDS011;35233;55.686;37.848;2023-01-15T10:57:59;13.23;;;6.90;;
47784;SDS011;35233;55.686;37.848;2023-01-15T11:00:33;14.63;;;7.32;;
47784;SDS011;35233;55.686;37.848;2023-01-15T11:03:01;16.10;;;7.00;;
47784;SDS011;35233;55.686;37.848;2023-01-15T11:05:39;16.17;;;6.90;;
47784;SDS011;35233;55.686;37.848;2023-01-15T11:08:06;16.15;;;7.75;;
47784;SDS011;35233;55.686;37.848;2023-01-15T11:10:38;13.45;;;7.32;;
47784;SDS011;35233;55.686;37.848;2023-01-15T11:13:23;15.13;;;6.70;;
47784;SDS011;35233;55.686;37.848;2023-01-15T11:16:16;17.40;;;7.32;;
47784;SDS011;35233;55.686;37.848;2023-01-15T11:22:07;19.27;;;6.93;;
47784;SDS011;35233;55.686;37.848;2023-01-15T11:24:37;15.95;;;7.38;;
47784;SDS011;35233;55.686;37.848;2023-01-15T11:27:21;11.38;;;6.30;;
47784;SDS011;35233;55.686;37.848;2023-01-15T11:29:56;13.93;;;6.97;;
47784;SDS011;35233;55.686;37.848;2023-01-15T11:32:29;14.10;;;7.35;;
47784;SDS011;35233;55.686;37.848;2023-01-15T11:35:01;14.55;;;6.72;;
47784;SDS011;35233;55.686;37.848;2023-01-15T11:37:40;16.02;;;6.50;;
47784;SDS011;35233;55.686;37.848;2023-01-15T11:40:14;12.60;;;6.70;;
47784;SDS011;35233;55.686;37.848;2023-01-15T11:42:45;15.50;;;6.65;;
47784;SDS011;35233;55.686;37.848;2023-01-15T11:45:31;14.10;;;6.60;;
47784;SDS011;35233;55.686;37.848;2023-01-15T11:48:19;17.48;;;6.53;;
47784;SDS011;35233;55.686;37.848;2023-01-15T11:51:06;11.35;;;6.45;;
47784;SDS011;35233;55.686;37.848;2023-01-15T11:53:43;13.48;;;6.45;;
47784;SDS011;35233;55.686;37.848;2023-01-15T11:56:34;15.18;;;6.55;;
47784;SDS011;35233;55.686;37.848;2023-01-15T11:59:02;12.85;;;6.40;;
47784;SDS011;35233;55.686;37.848;2023-01-15T12:01:37;12.23;;;6.57;;
47784;SDS011;35233;55.686;37.848;2023-01-15T12:04:28;12.38;;;5.97;;
47784;SDS011;35233;55.686;37.848;2023-01-15T12:06:58;10.88;;;5.93;;
47784;SDS011;35233;55.686;37.848;2023-01-15T12:10:13;11.27;;;6.05;;
47784;SDS011;35233;55.686;37.848;2023-01-15T12:15:28;11.65;;;6.18;;
47784;SDS011;35233;55.686;37.848;2023-01-15T12:20:44;10.77;;;5.75;;
47784;SDS011;35233;55.686;37.848;2023-01-15T12:29:14;17.10;;;6.35;;
47784;SDS011;35233;55.686;37.848;2023-01-15T12:34:24;8.68;;;5.25;;
47784;SDS011;35233;55.686;37.848;2023-01-15T12:37:05;12.02;;;5.50;;
47784;SDS011;35233;55.686;37.848;2023-01-15T12:42:21;12.00;;;5.57;;
47784;SDS011;35233;55.686;37.848;2023-01-15T12:45:09;11.20;;;5.43;;
47784;SDS011;35233;55.686;37.848;2023-01-15T12:55:43;11.13;;;5.57;;
47784;SDS011;35233;55.686;37.848;2023-01-15T12:58:20;10.90;;;5.45;;
47784;SDS011;35233;55.686;37.848;2023-01-15T13:04:33;7.80;;;4.65;;
47784;SDS011;35233;55.686;37.848;2023-01-15T13:07:19;9.98;;;5.18;;
47784;SDS011;35233;55.686;37.848;2023-01-15T13:10:06;7.10;;;4.82;;
47784;SDS011;35233;55.686;37.848;2023-01-15T13:12:34;9.98;;;5.20;;
47784;SDS011;35233;55.686;37.848;2023-01-15T13:15:00;9.45;;;5.13;;
47784;SDS011;35233;55.686;37.848;2023-01-15T13:17:39;8.52;;;4.90;;
47784;SDS011;35233;55.686;37.848;2023-01-15T13:28:58;10.07;;;5.00;;
47784;SDS011;35233;55.686;37.848;2023-01-15T13:34:29;9.13;;;4.47;;
47784;SDS011;35233;55.686;37.848;2023-01-15T13:36:58;8.15;;;4.93;;
47784;SDS011;35233;55.686;37.848;2023-01-15T13:39:39;7.83;;;4.57;;
47784;SDS011;35233;55.686;37.848;2023-01-15T13:42:20;7.43;;;4.32;;
47784;SDS011;35233;55.686;37.848;2023-01-15T13:44:57;11.43;;;4.97;;
47784;SDS011;35233;55.686;37.848;2023-01-15T13:47:30;7.22;;;4.65;;
47784;SDS011;35233;55.686;37.848;2023-01-15T13:49:59;8.45;;;4.35;;
47784;SDS011;35233;55.686;37.848;2023-01-15T13:52:32;8.00;;;4.43;;
47784;SDS011;35233;55.686;37.848;2023-01-15T13:55:00;6.00;;;4.35;;
47784;SDS011;35233;55.686;37.848;2023-01-15T13:57:43;9.38;;;4.88;;
47784;SDS011;35233;55.686;37.848;2023-01-15T14:03:00;7.10;;;4.40;;
47784;SDS011;35233;55.686;37.848;2023-01-15T14:05:33;10.35;;;4.57;;
47784;SDS011;35233;55.686;37.848;2023-01-15T14:08:00;11.68;;;5.22;;
47784;SDS011;35233;55.686;37.848;2023-01-15T14:10:32;8.23;;;4.60;;
47784;SDS011;35233;55.686;37.848;2023-01-15T14:13:06;7.43;;;5.07;;
47784;SDS011;35233;55.686;37.848;2023-01-15T14:15:38;10.35;;;5.40;;
47784;SDS011;35233;55.686;37.848;2023-01-15T14:26:07;10.18;;;5.78;;
47784;SDS011;35233;55.686;37.848;2023-01-15T14:36:58;8.85;;;5.50;;
47784;SDS011;35233;55.686;37.848;2023-01-15T14:42:13;10.68;;;6.18;;
47784;SDS011;35233;55.686;37.848;2023-01-15T14:47:43;10.68;;;5.88;;
47784;SDS011;35233;55.686;37.848;2023-01-15T14:55:44;13.70;;;6.85;;
47784;SDS011;35233;55.686;37.848;2023-01-15T14:58:17;16.02;;;7.57;;
47784;SDS011;35233;55.686;37.848;2023-01-15T15:00:53;28.52;;;13.48;;
47784;SDS011;35233;55.686;37.848;2023-01-15T15:03:32;22.83;;;13.75;;
47784;SDS011;35233;55.686;37.848;2023-01-15T15:06:01;21.83;;;13.43;;
47784;SDS011;35233;55.686;37.848;2023-01-15T15:08:30;21.55;;;13.88;;
47784;SDS011;35233;55.686;37.848;2023-01-15T15:10:59;20.52;;;12.98;;
47784;SDS011;35233;55.686;37.848;2023-01-15T15:13:27;22.15;;;14.05;;
47784;SDS011;35233;55.686;37.848;2023-01-15T15:16:03;20.15;;;14.52;;
47784;SDS011;35233;55.686;37.848;2023-01-15T15:21:15;19.73;;;14.50;;
47784;SDS011;35233;55.686;37.848;2023-01-15T15:26:32;17.55;;;12.57;;
47784;SDS011;35233;55.686;37.848;2023-01-15T15:31:35;17.35;;;12.63;;
47784;SDS011;35233;55.686;37.848;2023-01-15T15:34:03;18.40;;;12.02;;
47784;SDS011;35233;55.686;37.848;2023-01-15T15:36:31;18.10;;;12.93;;
47784;SDS011;35233;55.686;37.848;2023-01-15T15:39:03;20.40;;;13.45;;
47784;SDS011;35233;55.686;37.848;2023-01-15T15:41:40;20.92;;;13.65;;
47784;SDS011;35233;55.686;37.848;2023-01-15T15:44:33;18.52;;;14.10;;
47784;SDS011;35233;55.686;37.848;2023-01-15T15:47:23;20.08;;;15.23;;
47784;SDS011;35233;55.686;37.848;2023-01-15T15:50:21;20.95;;;15.05;;
47784;SDS011;35233;55.686;37.848;2023-01-15T15:52:52;21.05;;;15.98;;
47784;SDS011;35233;55.686;37.848;2023-01-15T15:55:18;19.67;;;14.73;;
47784;SDS011;35233;55.686;37.848;2023-01-15T15:57:48;17.50;;;13.68;;
47784;SDS011;35233;55.686;37.848;2023-01-15T16:00:24;18.65;;;14.13;;
47784;SDS011;35233;55.686;37.848;2023-01-15T16:02:58;18.80;;;13.52;;
47784;SDS011;35233;55.686;37.848;2023-01-15T16:05:28;17.77;;;12.90;;
47784;SDS011;35233;55.686;37.848;2023-01-15T16:08:07;15.98;;;12.55;;
47784;SDS011;35233;55.686;37.848;2023-01-15T16:10:45;15.90;;;11.63;;
47784;SDS011;35233;55.686;37.848;2023-01-15T16:13:22;16.58;;;12.38;;
47784;SDS011;35233;55.686;37.848;2023-01-15T16:15:51;16.92;;;11.85;;
47784;SDS011;35233;55.686;37.848;2023-01-15T16:18:30;14.43;;;10.95;;
47784;SDS011;35233;55.686;37.848;2023-01-15T16:20:58;15.18;;;10.90;;
47784;SDS011;35233;55.686;37.848;2023-01-15T16:23:28;13.48;;;10.27;;
47784;SDS011;35233;55.686;37.848;2023-01-15T16:28:34;15.32;;;9.88;;
47784;SDS011;35233;55.686;37.848;2023-01-15T16:31:03;14.15;;;9.38;;
47784;SDS011;35233;55.686;37.848;2023-01-15T16:33:29;13.93;;;10.20;;
47784;SDS011;35233;55.686;37.848;2023-01-15T16:35:56;12.10;;;8.85;;
47784;SDS011;35233;55.686;37.848;2023-01-15T16:38:22;11.80;;;8.73;;
47784;SDS011;35233;55.686;37.848;2023-01-15T16:40:50;15.00;;;9.35;;
47784;SDS011;35233;55.686;37.848;2023-01-15T16:43:20;13.48;;;9.15;;
47784;SDS011;35233;55.686;37.848;2023-01-15T16:45:59;12.13;;;9.07;;
47784;SDS011;35233;55.686;37.848;2023-01-15T16:48:28;11.88;;;8.63;;
47784;SDS011;35233;55.686;37.848;2023-01-15T16:54:00;12.98;;;8.45;;
47784;SDS011;35233;55.686;37.848;2023-01-15T16:59:13;12.07;;;8.52;;
47784;SDS011;35233;55.686;37.848;2023-01-15T17:01:44;9.93;;;7.72;;
47784;SDS011;35233;55.686;37.848;2023-01-15T17:09:26;11.13;;;7.20;;
47784;SDS011;35233;55.686;37.848;2023-01-15T17:11:54;9.18;;;7.07;;
47784;SDS011;35233;55.686;37.848;2023-01-15T17:14:24;10.02;;;7.43;;
47784;SDS011;35233;55.686;37.848;2023-01-15T17:19:49;11.70;;;8.10;;
47784;SDS011;35233;55.686;37.848;2023-01-15T17:22:29;11.20;;;8.20;;